sensor_id;sensor_type;location;lat;lon;timestamp;P1;durP1;ratioP1;P2;durP2;ratioP2
17818;SDS011;9034;50.284;19.310;2024-01-06T00:00:12;243.52;;;43.92;;
17818;SDS011;9034;50.284;19.310;2024-01-06T00:01:16;240.65;;;46.65;;
17818;SDS011;9034;50.284;19.310;2024-01-06T00:02:18;301.85;;;64.97;;
17818;SDS011;9034;50.284;19.310;2024-01-06T00:03:21;248.38;;;63.03;;
17818;SDS011;9034;50.284;19.310;2024-01-06T00:04:24;285.30;;;64.78;;
17818;SDS011;9034;50.284;19.310;2024-01-06T00:05:27;244.68;;;59.25;;
17818;SDS011;9034;50.284;19.310;2024-01-06T00:06:30;253.98;;;61.00;;
17818;SDS011;9034;50.284;19.310;2024-01-06T00:07:33;300.42;;;66.05;;
17818;SDS011;9034;50.284;19.310;2024-01-06T00:08:35;267.50;;;59.70;;
17818;SDS011;9034;50.284;19.310;2024-01-06T00:09:38;268.45;;;59.72;;
17818;SDS011;9034;50.284;19.310;2024-01-06T00:10:40;238.25;;;57.72;;
17818;SDS011;9034;50.284;19.310;2024-01-06T00:11:43;242.70;;;59.80;;
17818;SDS011;9034;50.284;19.310;2024-01-06T00:12:45;135.35;;;38.70;;
17818;SDS011;9034;50.284;19.310;2024-01-06T00:13:50;143.93;;;37.30;;
17818;SDS011;9034;50.284;19.310;2024-01-06T00:14:52;164.02;;;40.30;;
17818;SDS011;9034;50.284;19.310;2024-01-06T00:15:54;187.70;;;52.67;;
17818;SDS011;9034;50.284;19.310;2024-01-06T00:16:57;197.52;;;51.75;;
17818;SDS011;9034;50.284;19.310;2024-01-06T00:17:59;208.10;;;56.28;;
17818;SDS011;9034;50.284;19.310;2024-01-06T00:19:02;189.45;;;53.10;;
17818;SDS011;9034;50.284;19.310;2024-01-06T00:20:04;169.38;;;52.75;;
17818;SDS011;9034;50.284;19.310;2024-01-06T00:21:09;185.75;;;53.40;;
17818;SDS011;9034;50.284;19.310;2024-01-06T00:22:12;160.63;;;51.90;;
17818;SDS011;9034;50.284;19.310;2024-01-06T00:23:15;167.93;;;51.92;;
17818;SDS011;9034;50.284;19.310;2024-01-06T00:24:17;186.48;;;53.35;;
17818;SDS011;9034;50.284;19.310;2024-01-06T00:25:20;169.63;;;51.75;;
17818;SDS011;9034;50.284;19.310;2024-01-06T00:26:22;179.15;;;52.35;;
17818;SDS011;9034;50.284;19.310;2024-01-06T00:27:25;99.47;;;34.40;;
17818;SDS011;9034;50.284;19.310;2024-01-06T00:28:27;103.10;;;34.65;;
17818;SDS011;9034;50.284;19.310;2024-01-06T00:29:30;106.05;;;34.42;;
17818;SDS011;9034;50.284;19.310;2024-01-06T00:30:32;99.05;;;34.30;;
17818;SDS011;9034;50.284;19.310;2024-01-06T00:31:35;104.20;;;37.42;;
17818;SDS011;9034;50.284;19.310;2024-01-06T00:32:37;135.30;;;47.65;;
17818;SDS011;9034;50.284;19.310;2024-01-06T00:33:40;117.78;;;44.50;;
17818;SDS011;9034;50.284;19.310;2024-01-06T00:34:42;104.72;;;42.72;;
17818;SDS011;9034;50.284;19.310;2024-01-06T00:35:45;100.65;;;42.35;;
17818;SDS011;9034;50.284;19.310;2024-01-06T00:36:47;122.15;;;46.10;;
17818;SDS011;9034;50.284;19.310;2024-01-06T00:37:51;90.43;;;34.17;;
17818;SDS011;9034;50.284;19.310;2024-01-06T00:38:53;106.50;;;43.33;;
17818;SDS011;9034;50.284;19.310;2024-01-06T00:39:56;110.07;;;48.97;;
17818;SDS011;9034;50.284;19.310;2024-01-06T00:40:58;113.35;;;49.40;;
17818;SDS011;9034;50.284;19.310;2024-01-06T00:42:00;133.50;;;55.13;;
17818;SDS011;9034;50.284;19.310;2024-01-06T00:43:03;130.88;;;50.58;;
17818;SDS011;9034;50.284;19.310;2024-01-06T00:44:05;112.22;;;49.38;;
17818;SDS011;9034;50.284;19.310;2024-01-06T00:45:08;110.50;;;48.42;;
17818;SDS011;9034;50.284;19.310;2024-01-06T00:46:10;127.95;;;51.70;;
17818;SDS011;9034;50.284;19.310;2024-01-06T00:47:13;119.95;;;53.30;;
17818;SDS011;9034;50.284;19.310;2024-01-06T00:48:15;127.53;;;55.15;;
17818;SDS011;9034;50.284;19.310;2024-01-06T00:49:18;93.13;;;40.53;;
17818;SDS011;9034;50.284;19.310;2024-01-06T00:50:21;99.82;;;40.88;;
17818;SDS011;9034;50.284;19.310;2024-01-06T00:51:23;83.75;;;36.78;;
17818;SDS011;9034;50.284;19.310;2024-01-06T00:52:26;93.55;;;39.78;;
17818;SDS011;9034;50.284;19.310;2024-01-06T00:53:30;119.78;;;54.85;;
17818;SDS011;9034;50.284;19.310;2024-01-06T00:54:32;109.78;;;53.65;;
17818;SDS011;9034;50.284;19.310;2024-01-06T00:55:35;122.30;;;53.25;;
17818;SDS011;9034;50.284;19.310;2024-01-06T00:56:37;141.23;;;61.72;;
17818;SDS011;9034;50.284;19.310;2024-01-06T00:57:39;121.57;;;54.92;;
17818;SDS011;9034;50.284;19.310;2024-01-06T00:58:42;119.75;;;53.72;;
17818;SDS011;9034;50.284;19.310;2024-01-06T00:59:44;122.93;;;53.50;;
17818;SDS011;9034;50.284;19.310;2024-01-06T01:00:47;112.03;;;52.72;;
17818;SDS011;9034;50.284;19.310;2024-01-06T01:01:49;106.43;;;49.42;;
17818;SDS011;9034;50.284;19.310;2024-01-06T01:02:52;96.25;;;39.20;;
17818;SDS011;9034;50.284;19.310;2024-01-06T01:03:54;117.88;;;55.10;;
17818;SDS011;9034;50.284;19.310;2024-01-06T01:04:57;114.50;;;51.25;;
17818;SDS011;9034;50.284;19.310;2024-01-06T01:05:59;114.45;;;53.85;;
17818;SDS011;9034;50.284;19.310;2024-01-06T01:07:02;121.85;;;53.10;;
17818;SDS011;9034;50.284;19.310;2024-01-06T01:08:04;109.07;;;53.20;;
17818;SDS011;9034;50.284;19.310;2024-01-06T01:09:09;96.68;;;39.35;;
17818;SDS011;9034;50.284;19.310;2024-01-06T01:10:12;87.68;;;38.42;;
17818;SDS011;9034;50.284;19.310;2024-01-06T01:11:15;85.13;;;37.50;;
17818;SDS011;9034;50.284;19.310;2024-01-06T01:12:17;102.18;;;47.15;;
17818;SDS011;9034;50.284;19.310;2024-01-06T01:13:20;107.22;;;49.45;;
17818;SDS011;9034;50.284;19.310;2024-01-06T01:14:22;103.43;;;49.30;;
17818;SDS011;9034;50.284;19.310;2024-01-06T01:15:25;111.80;;;50.38;;
17818;SDS011;9034;50.284;19.310;2024-01-06T01:16:26;105.93;;;48.67;;
17818;SDS011;9034;50.284;19.310;2024-01-06T01:17:29;98.15;;;46.50;;
17818;SDS011;9034;50.284;19.310;2024-01-06T01:18:31;103.80;;;47.78;;
17818;SDS011;9034;50.284;19.310;2024-01-06T01:19:35;102.70;;;48.40;;
17818;SDS011;9034;50.284;19.310;2024-01-06T01:20:37;121.55;;;52.25;;
17818;SDS011;9034;50.284;19.310;2024-01-06T01:21:40;117.57;;;52.17;;
17818;SDS011;9034;50.284;19.310;2024-01-06T01:22:42;111.30;;;52.45;;
17818;SDS011;9034;50.284;19.310;2024-01-06T01:23:45;118.78;;;51.60;;
17818;SDS011;9034;50.284;19.310;2024-01-06T01:24:48;110.97;;;51.25;;
17818;SDS011;9034;50.284;19.310;2024-01-06T01:25:51;119.25;;;52.70;;
17818;SDS011;9034;50.284;19.310;2024-01-06T01:26:53;106.53;;;50.97;;
17818;SDS011;9034;50.284;19.310;2024-01-06T01:27:56;92.63;;;39.00;;
17818;SDS011;9034;50.284;19.310;2024-01-06T01:28:58;84.72;;;38.90;;
17818;SDS011;9034;50.284;19.310;2024-01-06T01:30:01;113.03;;;48.72;;
17818;SDS011;9034;50.284;19.310;2024-01-06T01:31:03;97.30;;;46.92;;
17818;SDS011;9034;50.284;19.310;2024-01-06T01:32:06;100.80;;;49.75;;
17818;SDS011;9034;50.284;19.310;2024-01-06T01:33:09;95.38;;;46.35;;
17818;SDS011;9034;50.284;19.310;2024-01-06T01:34:12;106.32;;;49.88;;
17818;SDS011;9034;50.284;19.310;2024-01-06T01:35:14;105.93;;;48.65;;
17818;SDS011;9034;50.284;19.310;2024-01-06T01:36:17;102.55;;;47.83;;
17818;SDS011;9034;50.284;19.310;2024-01-06T01:37:19;101.63;;;47.80;;
17818;SDS011;9034;50.284;19.310;2024-01-06T01:38:22;96.22;;;46.35;;
17818;SDS011;9034;50.284;19.310;2024-01-06T01:39:24;95.47;;;45.80;;
17818;SDS011;9034;50.284;19.310;2024-01-06T01:40:29;85.45;;;42.78;;
17818;SDS011;9034;50.284;19.310;2024-01-06T01:41:30;66.88;;;32.90;;
17818;SDS011;9034;50.284;19.310;2024-01-06T01:42:33;73.63;;;33.85;;
17818;SDS011;9034;50.284;19.310;2024-01-06T01:43:35;69.47;;;32.65;;
17818;SDS011;9034;50.284;19.310;2024-01-06T01:44:39;67.50;;;33.92;;
17818;SDS011;9034;50.284;19.310;2024-01-06T01:45:41;88.85;;;44.28;;
17818;SDS011;9034;50.284;19.310;2024-01-06T01:46:43;83.00;;;43.50;;
17818;SDS011;9034;50.284;19.310;2024-01-06T01:47:46;80.88;;;42.05;;
17818;SDS011;9034;50.284;19.310;2024-01-06T01:48:48;84.90;;;41.85;;
17818;SDS011;9034;50.284;19.310;2024-01-06T01:49:51;77.95;;;40.72;;
17818;SDS011;9034;50.284;19.310;2024-01-06T01:50:54;88.10;;;44.58;;
17818;SDS011;9034;50.284;19.310;2024-01-06T01:51:57;100.55;;;48.35;;
17818;SDS011;9034;50.284;19.310;2024-01-06T01:52:59;102.55;;;49.20;;
17818;SDS011;9034;50.284;19.310;2024-01-06T01:54:01;102.32;;;49.60;;
17818;SDS011;9034;50.284;19.310;2024-01-06T01:55:04;101.68;;;46.25;;
17818;SDS011;9034;50.284;19.310;2024-01-06T01:56:08;103.57;;;47.40;;
17818;SDS011;9034;50.284;19.310;2024-01-06T01:57:11;97.18;;;46.25;;
17818;SDS011;9034;50.284;19.310;2024-01-06T01:58:14;84.38;;;43.22;;
17818;SDS011;9034;50.284;19.310;2024-01-06T01:59:18;102.35;;;48.60;;
17818;SDS011;9034;50.284;19.310;2024-01-06T02:00:20;105.57;;;51.67;;
17818;SDS011;9034;50.284;19.310;2024-01-06T02:01:27;114.10;;;51.45;;
17818;SDS011;9034;50.284;19.310;2024-01-06T02:02:30;107.22;;;53.00;;
17818;SDS011;9034;50.284;19.310;2024-01-06T02:03:33;100.53;;;49.47;;
17818;SDS011;9034;50.284;19.310;2024-01-06T02:04:36;106.07;;;50.95;;
17818;SDS011;9034;50.284;19.310;2024-01-06T02:05:39;108.18;;;52.40;;
17818;SDS011;9034;50.284;19.310;2024-01-06T02:06:41;84.68;;;38.42;;
17818;SDS011;9034;50.284;19.310;2024-01-06T02:07:44;99.82;;;48.15;;
17818;SDS011;9034;50.284;19.310;2024-01-06T02:08:46;95.47;;;49.50;;
17818;SDS011;9034;50.284;19.310;2024-01-06T02:09:49;104.70;;;50.10;;
17818;SDS011;9034;50.284;19.310;2024-01-06T02:10:53;112.93;;;50.45;;
17818;SDS011;9034;50.284;19.310;2024-01-06T02:11:59;80.38;;;38.65;;
17818;SDS011;9034;50.284;19.310;2024-01-06T02:13:07;80.85;;;35.67;;
17818;SDS011;9034;50.284;19.310;2024-01-06T02:14:10;84.38;;;38.75;;
17818;SDS011;9034;50.284;19.310;2024-01-06T02:15:12;104.50;;;46.65;;
17818;SDS011;9034;50.284;19.310;2024-01-06T02:16:15;88.50;;;46.00;;
17818;SDS011;9034;50.284;19.310;2024-01-06T02:17:18;96.05;;;47.03;;
17818;SDS011;9034;50.284;19.310;2024-01-06T02:18:20;100.60;;;47.85;;
17818;SDS011;9034;50.284;19.310;2024-01-06T02:19:23;96.72;;;47.10;;
17818;SDS011;9034;50.284;19.310;2024-01-06T02:20:26;86.60;;;45.25;;
17818;SDS011;9034;50.284;19.310;2024-01-06T02:21:30;90.35;;;45.78;;
17818;SDS011;9034;50.284;19.310;2024-01-06T02:22:35;90.25;;;43.40;;
17818;SDS011;9034;50.284;19.310;2024-01-06T02:23:37;92.00;;;44.50;;
17818;SDS011;9034;50.284;19.310;2024-01-06T02:24:40;86.78;;;42.13;;
17818;SDS011;9034;50.284;19.310;2024-01-06T02:25:42;88.07;;;43.35;;
17818;SDS011;9034;50.284;19.310;2024-01-06T02:26:45;82.28;;;43.15;;
17818;SDS011;9034;50.284;19.310;2024-01-06T02:27:47;89.82;;;42.67;;
17818;SDS011;9034;50.284;19.310;2024-01-06T02:28:50;88.65;;;42.10;;
17818;SDS011;9034;50.284;19.310;2024-01-06T02:29:52;91.72;;;43.05;;
17818;SDS011;9034;50.284;19.310;2024-01-06T02:30:55;86.40;;;42.72;;
17818;SDS011;9034;50.284;19.310;2024-01-06T02:31:57;84.35;;;41.53;;
17818;SDS011;9034;50.284;19.310;2024-01-06T02:33:00;75.53;;;38.70;;
17818;SDS011;9034;50.284;19.310;2024-01-06T02:34:02;83.15;;;41.60;;
17818;SDS011;9034;50.284;19.310;2024-01-06T02:35:06;89.55;;;43.05;;
17818;SDS011;9034;50.284;19.310;2024-01-06T02:36:08;88.05;;;42.60;;
17818;SDS011;9034;50.284;19.310;2024-01-06T02:37:11;93.53;;;44.25;;
17818;SDS011;9034;50.284;19.310;2024-01-06T02:38:15;85.32;;;40.08;;
17818;SDS011;9034;50.284;19.310;2024-01-06T02:39:17;78.15;;;40.00;;
17818;SDS011;9034;50.284;19.310;2024-01-06T02:40:19;82.07;;;40.88;;
17818;SDS011;9034;50.284;19.310;2024-01-06T02:41:22;80.43;;;40.75;;
17818;SDS011;9034;50.284;19.310;2024-01-06T02:42:24;89.65;;;42.80;;
17818;SDS011;9034;50.284;19.310;2024-01-06T02:43:27;77.63;;;39.20;;
17818;SDS011;9034;50.284;19.310;2024-01-06T02:44:29;67.05;;;31.08;;
17818;SDS011;9034;50.284;19.310;2024-01-06T02:45:32;64.28;;;31.35;;
17818;SDS011;9034;50.284;19.310;2024-01-06T02:46:35;60.22;;;30.83;;
17818;SDS011;9034;50.284;19.310;2024-01-06T02:47:38;76.75;;;39.25;;
17818;SDS011;9034;50.284;19.310;2024-01-06T02:48:40;79.45;;;39.67;;
17818;SDS011;9034;50.284;19.310;2024-01-06T02:49:43;107.45;;;45.38;;
17818;SDS011;9034;50.284;19.310;2024-01-06T02:50:45;104.82;;;42.33;;
17818;SDS011;9034;50.284;19.310;2024-01-06T02:51:47;115.45;;;45.47;;
17818;SDS011;9034;50.284;19.310;2024-01-06T02:52:50;110.78;;;44.95;;
17818;SDS011;9034;50.284;19.310;2024-01-06T02:53:53;85.40;;;38.75;;
17818;SDS011;9034;50.284;19.310;2024-01-06T02:54:56;119.75;;;52.28;;
17818;SDS011;9034;50.284;19.310;2024-01-06T02:55:58;187.93;;;83.50;;
17818;SDS011;9034;50.284;19.310;2024-01-06T02:57:01;173.57;;;72.72;;
17818;SDS011;9034;50.284;19.310;2024-01-06T02:58:03;128.32;;;58.17;;
17818;SDS011;9034;50.284;19.310;2024-01-06T02:59:06;173.02;;;74.22;;
17818;SDS011;9034;50.284;19.310;2024-01-06T03:00:08;155.10;;;68.43;;
17818;SDS011;9034;50.284;19.310;2024-01-06T03:01:11;143.90;;;64.65;;
17818;SDS011;9034;50.284;19.310;2024-01-06T03:02:14;177.75;;;77.93;;
17818;SDS011;9034;50.284;19.310;2024-01-06T03:03:17;177.25;;;78.25;;
17818;SDS011;9034;50.284;19.310;2024-01-06T03:04:20;149.38;;;57.17;;
17818;SDS011;9034;50.284;19.310;2024-01-06T03:05:22;140.48;;;52.85;;
17818;SDS011;9034;50.284;19.310;2024-01-06T03:06:25;158.40;;;72.82;;
17818;SDS011;9034;50.284;19.310;2024-01-06T03:07:27;160.82;;;74.07;;
17818;SDS011;9034;50.284;19.310;2024-01-06T03:08:30;134.80;;;53.83;;
17818;SDS011;9034;50.284;19.310;2024-01-06T03:09:33;124.32;;;52.20;;
17818;SDS011;9034;50.284;19.310;2024-01-06T03:10:36;124.35;;;53.10;;
17818;SDS011;9034;50.284;19.310;2024-01-06T03:11:39;127.22;;;53.63;;
17818;SDS011;9034;50.284;19.310;2024-01-06T03:12:42;125.95;;;53.78;;
17818;SDS011;9034;50.284;19.310;2024-01-06T03:13:44;160.05;;;69.18;;
17818;SDS011;9034;50.284;19.310;2024-01-06T03:14:47;148.88;;;66.68;;
17818;SDS011;9034;50.284;19.310;2024-01-06T03:15:49;148.75;;;68.28;;
17818;SDS011;9034;50.284;19.310;2024-01-06T03:16:52;145.70;;;68.78;;
17818;SDS011;9034;50.284;19.310;2024-01-06T03:17:54;150.57;;;65.22;;
17818;SDS011;9034;50.284;19.310;2024-01-06T03:18:57;127.72;;;51.88;;
17818;SDS011;9034;50.284;19.310;2024-01-06T03:19:59;123.07;;;50.63;;
17818;SDS011;9034;50.284;19.310;2024-01-06T03:21:02;134.65;;;62.63;;
17818;SDS011;9034;50.284;19.310;2024-01-06T03:22:05;148.73;;;63.92;;
17818;SDS011;9034;50.284;19.310;2024-01-06T03:23:08;133.25;;;60.13;;
17818;SDS011;9034;50.284;19.310;2024-01-06T03:24:10;130.10;;;58.60;;
17818;SDS011;9034;50.284;19.310;2024-01-06T03:25:14;104.38;;;43.92;;
17818;SDS011;9034;50.284;19.310;2024-01-06T03:26:16;110.30;;;46.80;;
17818;SDS011;9034;50.284;19.310;2024-01-06T03:27:20;167.85;;;72.53;;
17818;SDS011;9034;50.284;19.310;2024-01-06T03:28:22;129.63;;;61.08;;
17818;SDS011;9034;50.284;19.310;2024-01-06T03:29:24;129.00;;;53.67;;
17818;SDS011;9034;50.284;19.310;2024-01-06T03:30:26;125.82;;;52.30;;
17818;SDS011;9034;50.284;19.310;2024-01-06T03:31:30;146.30;;;68.28;;
17818;SDS011;9034;50.284;19.310;2024-01-06T03:32:32;142.95;;;63.85;;
17818;SDS011;9034;50.284;19.310;2024-01-06T03:33:35;136.48;;;64.97;;
17818;SDS011;9034;50.284;19.310;2024-01-06T03:34:37;137.18;;;60.47;;
17818;SDS011;9034;50.284;19.310;2024-01-06T03:35:40;150.45;;;65.63;;
17818;SDS011;9034;50.284;19.310;2024-01-06T03:36:42;118.25;;;46.05;;
17818;SDS011;9034;50.284;19.310;2024-01-06T03:37:45;128.65;;;49.33;;
17818;SDS011;9034;50.284;19.310;2024-01-06T03:38:47;136.60;;;64.03;;
17818;SDS011;9034;50.284;19.310;2024-01-06T03:39:50;144.50;;;62.78;;
17818;SDS011;9034;50.284;19.310;2024-01-06T03:40:53;123.65;;;52.17;;
17818;SDS011;9034;50.284;19.310;2024-01-06T03:41:56;161.60;;;71.07;;
17818;SDS011;9034;50.284;19.310;2024-01-06T03:42:58;122.70;;;50.58;;
17818;SDS011;9034;50.284;19.310;2024-01-06T03:44:02;128.93;;;49.72;;
17818;SDS011;9034;50.284;19.310;2024-01-06T03:45:04;116.05;;;49.60;;
17818;SDS011;9034;50.284;19.310;2024-01-06T03:46:07;125.35;;;60.88;;
17818;SDS011;9034;50.284;19.310;2024-01-06T03:47:09;126.72;;;60.17;;
17818;SDS011;9034;50.284;19.310;2024-01-06T03:48:12;125.53;;;59.28;;
17818;SDS011;9034;50.284;19.310;2024-01-06T03:49:14;114.18;;;57.25;;
17818;SDS011;9034;50.284;19.310;2024-01-06T03:50:16;116.07;;;55.13;;
17818;SDS011;9034;50.284;19.310;2024-01-06T03:51:19;113.57;;;56.22;;
17818;SDS011;9034;50.284;19.310;2024-01-06T03:52:22;126.22;;;57.00;;
17818;SDS011;9034;50.284;19.310;2024-01-06T03:53:25;112.78;;;51.90;;
17818;SDS011;9034;50.284;19.310;2024-01-06T03:54:27;118.95;;;54.03;;
17818;SDS011;9034;50.284;19.310;2024-01-06T03:55:30;104.65;;;50.22;;
17818;SDS011;9034;50.284;19.310;2024-01-06T03:56:34;88.35;;;43.28;;
17818;SDS011;9034;50.284;19.310;2024-01-06T03:57:37;93.60;;;46.65;;
17818;SDS011;9034;50.284;19.310;2024-01-06T03:58:39;74.38;;;35.35;;
17818;SDS011;9034;50.284;19.310;2024-01-06T03:59:42;89.50;;;43.88;;
17818;SDS011;9034;50.284;19.310;2024-01-06T04:00:44;104.22;;;46.65;;
17818;SDS011;9034;50.284;19.310;2024-01-06T04:01:47;107.95;;;50.15;;
17818;SDS011;9034;50.284;19.310;2024-01-06T04:02:49;93.90;;;47.47;;
17818;SDS011;9034;50.284;19.310;2024-01-06T04:03:52;113.35;;;51.78;;
17818;SDS011;9034;50.284;19.310;2024-01-06T04:04:54;103.97;;;42.42;;
17818;SDS011;9034;50.284;19.310;2024-01-06T04:05:57;100.07;;;45.58;;
17818;SDS011;9034;50.284;19.310;2024-01-06T04:06:59;105.95;;;51.25;;
17818;SDS011;9034;50.284;19.310;2024-01-06T04:08:03;144.68;;;62.55;;
17818;SDS011;9034;50.284;19.310;2024-01-06T04:09:06;133.23;;;58.40;;
17818;SDS011;9034;50.284;19.310;2024-01-06T04:10:08;141.25;;;62.50;;
17818;SDS011;9034;50.284;19.310;2024-01-06T04:11:11;126.85;;;61.00;;
17818;SDS011;9034;50.284;19.310;2024-01-06T04:12:15;122.65;;;57.15;;
17818;SDS011;9034;50.284;19.310;2024-01-06T04:13:18;127.20;;;56.67;;
17818;SDS011;9034;50.284;19.310;2024-01-06T04:14:20;120.07;;;58.17;;
17818;SDS011;9034;50.284;19.310;2024-01-06T04:15:23;138.52;;;63.85;;
17818;SDS011;9034;50.284;19.310;2024-01-06T04:16:25;124.68;;;57.28;;
17818;SDS011;9034;50.284;19.310;2024-01-06T04:17:28;131.05;;;55.67;;
17818;SDS011;9034;50.284;19.310;2024-01-06T04:18:30;93.18;;;48.25;;
17818;SDS011;9034;50.284;19.310;2024-01-06T04:19:33;111.80;;;51.88;;
17818;SDS011;9034;50.284;19.310;2024-01-06T04:20:36;107.65;;;51.53;;
17818;SDS011;9034;50.284;19.310;2024-01-06T04:21:39;122.05;;;54.78;;
17818;SDS011;9034;50.284;19.310;2024-01-06T04:22:41;131.75;;;58.03;;
17818;SDS011;9034;50.284;19.310;2024-01-06T04:23:44;123.72;;;57.42;;
17818;SDS011;9034;50.284;19.310;2024-01-06T04:24:46;133.43;;;59.65;;
17818;SDS011;9034;50.284;19.310;2024-01-06T04:25:48;125.35;;;56.22;;
17818;SDS011;9034;50.284;19.310;2024-01-06T04:26:50;120.13;;;56.28;;
17818;SDS011;9034;50.284;19.310;2024-01-06T04:27:55;127.00;;;58.53;;
17818;SDS011;9034;50.284;19.310;2024-01-06T04:28:57;122.28;;;55.88;;
17818;SDS011;9034;50.284;19.310;2024-01-06T04:29:59;129.65;;;58.65;;
17818;SDS011;9034;50.284;19.310;2024-01-06T04:31:01;130.38;;;59.05;;
17818;SDS011;9034;50.284;19.310;2024-01-06T04:32:05;124.90;;;56.80;;
17818;SDS011;9034;50.284;19.310;2024-01-06T04:33:09;116.28;;;56.42;;
17818;SDS011;9034;50.284;19.310;2024-01-06T04:34:12;113.78;;;54.92;;
17818;SDS011;9034;50.284;19.310;2024-01-06T04:35:14;112.75;;;52.85;;
17818;SDS011;9034;50.284;19.310;2024-01-06T04:36:17;101.70;;;50.25;;
17818;SDS011;9034;50.284;19.310;2024-01-06T04:37:20;112.38;;;52.75;;
17818;SDS011;9034;50.284;19.310;2024-01-06T04:38:22;110.25;;;54.65;;
17818;SDS011;9034;50.284;19.310;2024-01-06T04:39:24;128.93;;;55.90;;
17818;SDS011;9034;50.284;19.310;2024-01-06T04:40:27;119.60;;;55.70;;
17818;SDS011;9034;50.284;19.310;2024-01-06T04:41:29;113.40;;;53.53;;
17818;SDS011;9034;50.284;19.310;2024-01-06T04:42:32;101.13;;;51.78;;
17818;SDS011;9034;50.284;19.310;2024-01-06T04:43:35;119.60;;;55.20;;
17818;SDS011;9034;50.284;19.310;2024-01-06T04:44:38;121.05;;;54.25;;
17818;SDS011;9034;50.284;19.310;2024-01-06T04:45:40;108.60;;;52.13;;
17818;SDS011;9034;50.284;19.310;2024-01-06T04:46:43;108.60;;;51.80;;
17818;SDS011;9034;50.284;19.310;2024-01-06T04:47:45;104.30;;;49.73;;
17818;SDS011;9034;50.284;19.310;2024-01-06T04:48:47;94.82;;;47.70;;
17818;SDS011;9034;50.284;19.310;2024-01-06T04:49:50;100.75;;;47.75;;
17818;SDS011;9034;50.284;19.310;2024-01-06T04:50:52;94.82;;;46.20;;
17818;SDS011;9034;50.284;19.310;2024-01-06T04:51:55;111.18;;;49.97;;
17818;SDS011;9034;50.284;19.310;2024-01-06T04:52:57;91.82;;;45.75;;
17818;SDS011;9034;50.284;19.310;2024-01-06T04:54:00;90.32;;;45.45;;
17818;SDS011;9034;50.284;19.310;2024-01-06T04:55:03;89.40;;;44.30;;
17818;SDS011;9034;50.284;19.310;2024-01-06T04:56:06;82.63;;;41.90;;
17818;SDS011;9034;50.284;19.310;2024-01-06T04:57:08;80.25;;;40.00;;
17818;SDS011;9034;50.284;19.310;2024-01-06T04:58:11;70.50;;;37.35;;
17818;SDS011;9034;50.284;19.310;2024-01-06T04:59:14;64.97;;;36.47;;
17818;SDS011;9034;50.284;19.310;2024-01-06T05:00:16;64.50;;;36.13;;
17818;SDS011;9034;50.284;19.310;2024-01-06T05:01:19;63.72;;;36.40;;
17818;SDS011;9034;50.284;19.310;2024-01-06T05:02:21;68.13;;;37.53;;
17818;SDS011;9034;50.284;19.310;2024-01-06T05:03:24;63.40;;;35.60;;
17818;SDS011;9034;50.284;19.310;2024-01-06T05:04:26;65.32;;;36.38;;
17818;SDS011;9034;50.284;19.310;2024-01-06T05:05:30;74.13;;;39.05;;
17818;SDS011;9034;50.284;19.310;2024-01-06T05:06:32;64.85;;;38.22;;
17818;SDS011;9034;50.284;19.310;2024-01-06T05:07:35;66.75;;;39.05;;
17818;SDS011;9034;50.284;19.310;2024-01-06T05:08:37;74.80;;;39.08;;
17818;SDS011;9034;50.284;19.310;2024-01-06T05:09:45;70.35;;;39.33;;
17818;SDS011;9034;50.284;19.310;2024-01-06T05:10:47;72.47;;;39.60;;
17818;SDS011;9034;50.284;19.310;2024-01-06T05:11:51;82.40;;;40.80;;
17818;SDS011;9034;50.284;19.310;2024-01-06T05:12:53;83.47;;;41.40;;
17818;SDS011;9034;50.284;19.310;2024-01-06T05:13:56;78.00;;;39.17;;
17818;SDS011;9034;50.284;19.310;2024-01-06T05:15:00;75.93;;;38.65;;
17818;SDS011;9034;50.284;19.310;2024-01-06T05:16:02;72.45;;;39.75;;
17818;SDS011;9034;50.284;19.310;2024-01-06T05:17:05;76.68;;;40.42;;
17818;SDS011;9034;50.284;19.310;2024-01-06T05:18:07;75.45;;;39.63;;
17818;SDS011;9034;50.284;19.310;2024-01-06T05:19:10;75.00;;;39.70;;
17818;SDS011;9034;50.284;19.310;2024-01-06T05:20:13;79.65;;;41.13;;
17818;SDS011;9034;50.284;19.310;2024-01-06T05:21:16;71.47;;;38.38;;
17818;SDS011;9034;50.284;19.310;2024-01-06T05:22:18;78.35;;;40.03;;
17818;SDS011;9034;50.284;19.310;2024-01-06T05:23:21;85.47;;;40.90;;
17818;SDS011;9034;50.284;19.310;2024-01-06T05:24:23;73.57;;;39.40;;
17818;SDS011;9034;50.284;19.310;2024-01-06T05:25:26;83.68;;;40.35;;
17818;SDS011;9034;50.284;19.310;2024-01-06T05:26:28;84.53;;;40.95;;
17818;SDS011;9034;50.284;19.310;2024-01-06T05:27:31;81.78;;;40.83;;
17818;SDS011;9034;50.284;19.310;2024-01-06T05:28:33;86.88;;;42.30;;
17818;SDS011;9034;50.284;19.310;2024-01-06T05:29:35;87.65;;;43.80;;
17818;SDS011;9034;50.284;19.310;2024-01-06T05:30:39;87.18;;;43.45;;
17818;SDS011;9034;50.284;19.310;2024-01-06T05:31:42;80.80;;;40.78;;
17818;SDS011;9034;50.284;19.310;2024-01-06T05:32:44;85.07;;;42.60;;
17818;SDS011;9034;50.284;19.310;2024-01-06T05:33:47;85.82;;;43.08;;
17818;SDS011;9034;50.284;19.310;2024-01-06T05:34:49;78.95;;;40.75;;
17818;SDS011;9034;50.284;19.310;2024-01-06T05:35:52;75.45;;;39.65;;
17818;SDS011;9034;50.284;19.310;2024-01-06T05:36:54;71.53;;;39.00;;
17818;SDS011;9034;50.284;19.310;2024-01-06T05:37:57;69.95;;;39.08;;
17818;SDS011;9034;50.284;19.310;2024-01-06T05:38:59;73.40;;;39.38;;
17818;SDS011;9034;50.284;19.310;2024-01-06T05:40:02;74.22;;;40.20;;
17818;SDS011;9034;50.284;19.310;2024-01-06T05:41:06;72.43;;;38.92;;
17818;SDS011;9034;50.284;19.310;2024-01-06T05:42:10;71.00;;;39.90;;
17818;SDS011;9034;50.284;19.310;2024-01-06T05:43:13;74.47;;;38.97;;
17818;SDS011;9034;50.284;19.310;2024-01-06T05:44:16;80.53;;;40.95;;
17818;SDS011;9034;50.284;19.310;2024-01-06T05:45:18;79.18;;;39.30;;
17818;SDS011;9034;50.284;19.310;2024-01-06T05:46:22;71.22;;;37.55;;
17818;SDS011;9034;50.284;19.310;2024-01-06T05:47:24;72.90;;;39.45;;
17818;SDS011;9034;50.284;19.310;2024-01-06T05:48:27;73.72;;;38.40;;
17818;SDS011;9034;50.284;19.310;2024-01-06T05:49:30;70.82;;;39.08;;
17818;SDS011;9034;50.284;19.310;2024-01-06T05:50:33;76.85;;;38.20;;
17818;SDS011;9034;50.284;19.310;2024-01-06T05:51:34;73.57;;;39.55;;
17818;SDS011;9034;50.284;19.310;2024-01-06T05:52:37;72.22;;;39.20;;
17818;SDS011;9034;50.284;19.310;2024-01-06T05:53:39;73.60;;;39.25;;
17818;SDS011;9034;50.284;19.310;2024-01-06T05:54:43;78.22;;;41.17;;
17818;SDS011;9034;50.284;19.310;2024-01-06T05:55:45;84.70;;;41.70;;
17818;SDS011;9034;50.284;19.310;2024-01-06T05:56:48;78.40;;;40.67;;
17818;SDS011;9034;50.284;19.310;2024-01-06T05:57:50;79.53;;;40.03;;
17818;SDS011;9034;50.284;19.310;2024-01-06T05:58:53;84.00;;;40.33;;
17818;SDS011;9034;50.284;19.310;2024-01-06T05:59:57;86.75;;;41.67;;
17818;SDS011;9034;50.284;19.310;2024-01-06T06:01:00;79.88;;;39.45;;
17818;SDS011;9034;50.284;19.310;2024-01-06T06:02:03;73.90;;;38.88;;
17818;SDS011;9034;50.284;19.310;2024-01-06T06:03:06;80.60;;;39.58;;